ADDS METAR Data INFO
IDs: Format: Raw Decoded Include TAF

Data at: 1518 UTC 11 Dec 2017

METAR for:KCGC (Crystal River Arpt, FL, US)
Text:KCGC 111455Z AUTO 35004KT 10SM CLR 10/00 A3032 RMK AO2
Temperature: 10.0°C ( 50°F)
Dewpoint: 0.0°C ( 32°F) [RH = 50%]
Pressure (altimeter):30.32 inches Hg (1026.8 mb)
Winds:from the N (350 degrees) at 5 MPH (4 knots; 2.1 m/s)
Visibility:10 or more sm (16+ km)
Ceiling:at least 12,000 feet AGL
Clouds:sky clear below 12,000 feet AGL
QC Flag:automated observation with no human augmentation